sensor_id;sensor_type;location;lat;lon;timestamp;pressure;altitude;pressure_sealevel;temperature;humidity
45813;BME280;31519;45.408;10.962;2023-04-10T00:00:45;101444.81;;;15.32;51.76
45813;BME280;31519;45.408;10.962;2023-04-10T00:03:22;101440.22;;;15.24;51.95
45813;BME280;31519;45.408;10.962;2023-04-10T00:05:51;101439.28;;;15.20;51.73
45813;BME280;31519;45.408;10.962;2023-04-10T00:08:21;101449.84;;;15.17;52.26
45813;BME280;31519;45.408;10.962;2023-04-10T00:10:49;101441.56;;;15.04;52.48
45813;BME280;31519;45.408;10.962;2023-04-10T00:13:17;101439.56;;;15.19;52.06
45813;BME280;31519;45.408;10.962;2023-04-10T00:15:45;101440.31;;;15.02;52.47
45813;BME280;31519;45.408;10.962;2023-04-10T00:18:12;101430.16;;;14.90;52.74
45813;BME280;31519;45.408;10.962;2023-04-10T00:20:40;101434.31;;;15.05;52.49
45813;BME280;31519;45.408;10.962;2023-04-10T00:23:08;101438.72;;;15.01;52.92
45813;BME280;31519;45.408;10.962;2023-04-10T00:25:36;101430.41;;;15.11;52.57
45813;BME280;31519;45.408;10.962;2023-04-10T00:28:04;101428.91;;;14.88;53.14
45813;BME280;31519;45.408;10.962;2023-04-10T00:30:32;101426.69;;;14.90;53.00
45813;BME280;31519;45.408;10.962;2023-04-10T00:32:59;101430.63;;;14.84;53.09
45813;BME280;31519;45.408;10.962;2023-04-10T00:35:27;101433.06;;;14.72;53.33
45813;BME280;31519;45.408;10.962;2023-04-10T00:37:55;101441.00;;;14.77;53.21
45813;BME280;31519;45.408;10.962;2023-04-10T00:40:24;101431.16;;;14.63;53.27
45813;BME280;31519;45.408;10.962;2023-04-10T00:42:52;101426.06;;;14.84;52.92
45813;BME280;31519;45.408;10.962;2023-04-10T00:45:20;101427.56;;;14.77;52.99
45813;BME280;31519;45.408;10.962;2023-04-10T00:47:47;101430.38;;;14.72;53.06
45813;BME280;31519;45.408;10.962;2023-04-10T00:50:16;101428.50;;;14.72;53.11
45813;BME280;31519;45.408;10.962;2023-04-10T00:52:43;101430.47;;;14.80;53.17
45813;BME280;31519;45.408;10.962;2023-04-10T00:55:11;101428.59;;;14.58;53.68
45813;BME280;31519;45.408;10.962;2023-04-10T00:57:41;101421.56;;;14.71;53.12
45813;BME280;31519;45.408;10.962;2023-04-10T01:00:11;101420.78;;;14.71;53.35
45813;BME280;31519;45.408;10.962;2023-04-10T01:02:39;101423.72;;;14.60;53.32
45813;BME280;31519;45.408;10.962;2023-04-10T01:05:10;101418.63;;;14.50;53.69
45813;BME280;31519;45.408;10.962;2023-04-10T01:07:50;101422.56;;;14.53;53.50
45813;BME280;31519;45.408;10.962;2023-04-10T01:10:25;101416.47;;;14.61;53.15
45813;BME280;31519;45.408;10.962;2023-04-10T01:16:09;101416.25;;;14.49;53.01
45813;BME280;31519;45.408;10.962;2023-04-10T01:18:40;101409.22;;;14.61;52.25
45813;BME280;31519;45.408;10.962;2023-04-10T01:21:09;101405.38;;;14.54;52.57
45813;BME280;31519;45.408;10.962;2023-04-10T01:23:59;101410.63;;;14.59;52.47
45813;BME280;31519;45.408;10.962;2023-04-10T01:26:41;101412.84;;;14.57;52.27
45813;BME280;31519;45.408;10.962;2023-04-10T01:29:13;101417.00;;;14.41;52.95
45813;BME280;31519;45.408;10.962;2023-04-10T01:31:53;101413.22;;;14.42;52.62
45813;BME280;31519;45.408;10.962;2023-04-10T01:34:23;101412.44;;;14.41;52.52
45813;BME280;31519;45.408;10.962;2023-04-10T01:36:54;101412.06;;;14.34;52.52
45813;BME280;31519;45.408;10.962;2023-04-10T01:39:23;101407.41;;;14.48;52.38
45813;BME280;31519;45.408;10.962;2023-04-10T01:41:53;101405.91;;;14.34;52.32
45813;BME280;31519;45.408;10.962;2023-04-10T01:44:35;101409.66;;;14.33;52.42
45813;BME280;31519;45.408;10.962;2023-04-10T01:47:04;101412.75;;;14.48;51.81
45813;BME280;31519;45.408;10.962;2023-04-10T01:49:34;101404.38;;;14.41;51.85
45813;BME280;31519;45.408;10.962;2023-04-10T01:52:05;101405.34;;;14.45;51.59
45813;BME280;31519;45.408;10.962;2023-04-10T01:54:33;101392.88;;;14.18;51.98
45813;BME280;31519;45.408;10.962;2023-04-10T01:57:02;101399.69;;;14.25;52.14
45813;BME280;31519;45.408;10.962;2023-04-10T01:59:38;101399.38;;;14.26;51.73
45813;BME280;31519;45.408;10.962;2023-04-10T02:02:06;101402.00;;;14.17;52.09
45813;BME280;31519;45.408;10.962;2023-04-10T02:04:34;101412.19;;;14.07;52.46
45813;BME280;31519;45.408;10.962;2023-04-10T02:07:03;101415.75;;;14.02;52.19
45813;BME280;31519;45.408;10.962;2023-04-10T02:09:49;101415.28;;;14.23;52.04
45813;BME280;31519;45.408;10.962;2023-04-10T02:12:22;101419.72;;;14.05;52.81
45813;BME280;31519;45.408;10.962;2023-04-10T02:14:56;101415.03;;;13.88;53.04
45813;BME280;31519;45.408;10.962;2023-04-10T02:17:28;101417.44;;;13.76;53.45
45813;BME280;31519;45.408;10.962;2023-04-10T02:19:57;101421.22;;;13.75;53.89
45813;BME280;31519;45.408;10.962;2023-04-10T02:22:26;101419.31;;;13.75;53.81
45813;BME280;31519;45.408;10.962;2023-04-10T02:24:54;101421.22;;;13.75;54.22
45813;BME280;31519;45.408;10.962;2023-04-10T02:27:30;101413.34;;;13.56;54.80
45813;BME280;31519;45.408;10.962;2023-04-10T02:29:59;101424.97;;;13.38;55.63
45813;BME280;31519;45.408;10.962;2023-04-10T02:32:28;101428.84;;;13.32;56.32
45813;BME280;31519;45.408;10.962;2023-04-10T02:34:55;101430.38;;;13.60;56.11
45813;BME280;31519;45.408;10.962;2023-04-10T02:37:23;101424.66;;;13.40;57.02
45813;BME280;31519;45.408;10.962;2023-04-10T02:39:52;101421.63;;;13.19;57.79
45813;BME280;31519;45.408;10.962;2023-04-10T02:42:23;101422.50;;;12.87;59.67
45813;BME280;31519;45.408;10.962;2023-04-10T02:44:55;101427.84;;;12.87;59.96
45813;BME280;31519;45.408;10.962;2023-04-10T02:47:23;101425.97;;;13.01;59.83
45813;BME280;31519;45.408;10.962;2023-04-10T02:49:51;101421.00;;;12.95;60.08
45813;BME280;31519;45.408;10.962;2023-04-10T02:52:19;101420.91;;;13.00;60.25
45813;BME280;31519;45.408;10.962;2023-04-10T02:54:47;101436.75;;;12.82;60.80
45813;BME280;31519;45.408;10.962;2023-04-10T02:57:15;101426.72;;;12.88;60.88
45813;BME280;31519;45.408;10.962;2023-04-10T02:59:43;101426.53;;;12.71;61.90
45813;BME280;31519;45.408;10.962;2023-04-10T03:02:12;101425.97;;;12.87;61.18
45813;BME280;31519;45.408;10.962;2023-04-10T03:04:39;101424.75;;;12.94;61.24
45813;BME280;31519;45.408;10.962;2023-04-10T03:07:08;101428.94;;;13.27;60.21
45813;BME280;31519;45.408;10.962;2023-04-10T03:09:37;101418.34;;;13.22;59.73
45813;BME280;31519;45.408;10.962;2023-04-10T03:12:05;101427.25;;;13.04;59.86
45813;BME280;31519;45.408;10.962;2023-04-10T03:14:33;101423.06;;;12.98;60.03
45813;BME280;31519;45.408;10.962;2023-04-10T03:17:01;101429.22;;;12.84;60.77
45813;BME280;31519;45.408;10.962;2023-04-10T03:19:29;101426.84;;;13.10;59.76
45813;BME280;31519;45.408;10.962;2023-04-10T03:21:57;101439.78;;;12.76;60.60
45813;BME280;31519;45.408;10.962;2023-04-10T03:24:24;101444.94;;;12.72;60.87
45813;BME280;31519;45.408;10.962;2023-04-10T03:26:53;101438.94;;;12.94;60.32
45813;BME280;31519;45.408;10.962;2023-04-10T03:29:21;101441.38;;;12.77;60.09
45813;BME280;31519;45.408;10.962;2023-04-10T03:31:49;101438.44;;;12.78;60.46
45813;BME280;31519;45.408;10.962;2023-04-10T03:34:17;101447.41;;;12.69;60.60
45813;BME280;31519;45.408;10.962;2023-04-10T03:36:45;101449.47;;;12.58;60.62
45813;BME280;31519;45.408;10.962;2023-04-10T03:39:14;101443.44;;;12.66;60.51
45813;BME280;31519;45.408;10.962;2023-04-10T03:41:42;101453.69;;;12.46;61.00
45813;BME280;31519;45.408;10.962;2023-04-10T03:44:10;101451.47;;;12.34;61.53
45813;BME280;31519;45.408;10.962;2023-04-10T03:46:38;101451.00;;;12.32;61.77
45813;BME280;31519;45.408;10.962;2023-04-10T03:49:09;101453.66;;;12.32;61.61
45813;BME280;31519;45.408;10.962;2023-04-10T03:51:37;101451.72;;;12.51;60.71
45813;BME280;31519;45.408;10.962;2023-04-10T03:54:05;101451.91;;;12.41;60.91
45813;BME280;31519;45.408;10.962;2023-04-10T03:56:32;101456.84;;;12.48;60.87
45813;BME280;31519;45.408;10.962;2023-04-10T03:59:00;101455.09;;;12.57;60.40
45813;BME280;31519;45.408;10.962;2023-04-10T04:01:30;101452.16;;;12.58;60.60
45813;BME280;31519;45.408;10.962;2023-04-10T04:04:05;101453.69;;;12.46;60.64
45813;BME280;31519;45.408;10.962;2023-04-10T04:06:55;101459.66;;;12.24;61.26
45813;BME280;31519;45.408;10.962;2023-04-10T04:09:45;101462.56;;;12.09;61.86
45813;BME280;31519;45.408;10.962;2023-04-10T04:12:33;101460.75;;;12.23;61.55
45813;BME280;31519;45.408;10.962;2023-04-10T04:15:06;101463.50;;;11.99;62.52
45813;BME280;31519;45.408;10.962;2023-04-10T04:17:46;101466.16;;;12.18;62.27
45813;BME280;31519;45.408;10.962;2023-04-10T04:20:32;101469.72;;;12.13;62.12
45813;BME280;31519;45.408;10.962;2023-04-10T04:23:33;101469.41;;;12.15;62.26
45813;BME280;31519;45.408;10.962;2023-04-10T04:26:23;101477.56;;;12.23;61.61
45813;BME280;31519;45.408;10.962;2023-04-10T04:29:28;101473.53;;;12.07;61.82
45813;BME280;31519;45.408;10.962;2023-04-10T04:32:10;101482.69;;;12.20;61.59
45813;BME280;31519;45.408;10.962;2023-04-10T04:34:58;101478.00;;;11.93;61.90
45813;BME280;31519;45.408;10.962;2023-04-10T04:37:52;101474.78;;;11.96;62.39
45813;BME280;31519;45.408;10.962;2023-04-10T04:40:38;101487.94;;;12.25;61.19
45813;BME280;31519;45.408;10.962;2023-04-10T04:43:33;101484.72;;;12.09;62.14
45813;BME280;31519;45.408;10.962;2023-04-10T04:46:21;101483.72;;;11.86;62.51
45813;BME280;31519;45.408;10.962;2023-04-10T04:49:07;101484.16;;;11.70;63.28
45813;BME280;31519;45.408;10.962;2023-04-10T04:51:48;101482.84;;;11.91;62.56
45813;BME280;31519;45.408;10.962;2023-04-10T04:54:39;101483.44;;;11.64;63.06
45813;BME280;31519;45.408;10.962;2023-04-10T04:57:25;101496.44;;;11.71;63.26
45813;BME280;31519;45.408;10.962;2023-04-10T05:00:31;101496.41;;;11.94;62.41
45813;BME280;31519;45.408;10.962;2023-04-10T05:03:06;101503.28;;;12.01;61.97
45813;BME280;31519;45.408;10.962;2023-04-10T05:05:50;101508.09;;;11.98;61.77
45813;BME280;31519;45.408;10.962;2023-04-10T05:08:38;101501.47;;;11.77;62.43
45813;BME280;31519;45.408;10.962;2023-04-10T05:11:20;101503.84;;;11.97;61.45
45813;BME280;31519;45.408;10.962;2023-04-10T05:13:58;101511.97;;;11.87;61.80
45813;BME280;31519;45.408;10.962;2023-04-10T05:16:52;101515.78;;;12.05;61.12
45813;BME280;31519;45.408;10.962;2023-04-10T05:19:38;101517.56;;;12.10;60.75
45813;BME280;31519;45.408;10.962;2023-04-10T05:22:19;101513.09;;;12.05;61.11
45813;BME280;31519;45.408;10.962;2023-04-10T05:25:07;101514.03;;;12.14;60.04
45813;BME280;31519;45.408;10.962;2023-04-10T05:27:55;101512.19;;;12.28;59.45
45813;BME280;31519;45.408;10.962;2023-04-10T05:30:39;101518.00;;;12.17;59.99
45813;BME280;31519;45.408;10.962;2023-04-10T05:33:27;101515.25;;;12.03;60.21
45813;BME280;31519;45.408;10.962;2023-04-10T05:36:21;101513.00;;;12.29;59.33
45813;BME280;31519;45.408;10.962;2023-04-10T05:38:58;101523.66;;;12.48;58.91
45813;BME280;31519;45.408;10.962;2023-04-10T05:41:38;101521.50;;;12.82;57.51
45813;BME280;31519;45.408;10.962;2023-04-10T05:44:22;101521.31;;;12.78;57.37
45813;BME280;31519;45.408;10.962;2023-04-10T05:47:04;101525.44;;;12.71;57.43
45813;BME280;31519;45.408;10.962;2023-04-10T05:49:37;101527.47;;;12.93;57.40
45813;BME280;31519;45.408;10.962;2023-04-10T05:52:17;101536.28;;;12.93;56.77
45813;BME280;31519;45.408;10.962;2023-04-10T05:55:03;101535.47;;;13.25;56.29
45813;BME280;31519;45.408;10.962;2023-04-10T05:57:40;101544.19;;;13.44;55.48
45813;BME280;31519;45.408;10.962;2023-04-10T06:00:31;101539.44;;;13.27;55.96
45813;BME280;31519;45.408;10.962;2023-04-10T06:03:17;101550.34;;;13.31;56.10
45813;BME280;31519;45.408;10.962;2023-04-10T06:05:56;101548.47;;;13.72;55.05
45813;BME280;31519;45.408;10.962;2023-04-10T06:08:25;101560.69;;;13.51;55.11
45813;BME280;31519;45.408;10.962;2023-04-10T06:10:52;101552.13;;;13.63;55.34
45813;BME280;31519;45.408;10.962;2023-04-10T06:13:20;101554.97;;;13.94;54.30
45813;BME280;31519;45.408;10.962;2023-04-10T06:15:52;101552.00;;;13.95;54.17
45813;BME280;31519;45.408;10.962;2023-04-10T06:18:20;101563.19;;;14.11;53.63
45813;BME280;31519;45.408;10.962;2023-04-10T06:20:48;101565.38;;;14.09;53.52
45813;BME280;31519;45.408;10.962;2023-04-10T06:23:16;101560.03;;;14.45;53.30
45813;BME280;31519;45.408;10.962;2023-04-10T06:25:43;101561.91;;;14.44;53.25
45813;BME280;31519;45.408;10.962;2023-04-10T06:28:11;101568.06;;;14.45;53.02
45813;BME280;31519;45.408;10.962;2023-04-10T06:30:41;101566.06;;;14.73;52.49
45813;BME280;31519;45.408;10.962;2023-04-10T06:33:09;101575.81;;;14.69;51.57
45813;BME280;31519;45.408;10.962;2023-04-10T06:35:40;101573.44;;;14.67;51.46
45813;BME280;31519;45.408;10.962;2023-04-10T06:38:09;101572.41;;;14.77;51.25
45813;BME280;31519;45.408;10.962;2023-04-10T06:40:36;101567.94;;;14.94;50.43
45813;BME280;31519;45.408;10.962;2023-04-10T06:43:05;101570.00;;;15.20;49.50
45813;BME280;31519;45.408;10.962;2023-04-10T06:45:37;101562.69;;;15.12;49.63
45813;BME280;31519;45.408;10.962;2023-04-10T06:48:05;101567.03;;;15.30;49.18
45813;BME280;31519;45.408;10.962;2023-04-10T06:50:33;101562.97;;;15.72;47.52
45813;BME280;31519;45.408;10.962;2023-04-10T06:53:01;101566.69;;;15.54;46.64
45813;BME280;31519;45.408;10.962;2023-04-10T06:55:28;101563.41;;;15.65;46.87
45813;BME280;31519;45.408;10.962;2023-04-10T06:57:57;101560.47;;;15.92;46.42
45813;BME280;31519;45.408;10.962;2023-04-10T07:00:25;101565.41;;;16.08;46.21
45813;BME280;31519;45.408;10.962;2023-04-10T07:02:53;101569.03;;;16.12;45.70
45813;BME280;31519;45.408;10.962;2023-04-10T07:05:21;101571.72;;;15.94;45.92
45813;BME280;31519;45.408;10.962;2023-04-10T07:07:50;101557.78;;;16.10;45.99
45813;BME280;31519;45.408;10.962;2023-04-10T07:10:18;101553.06;;;16.32;45.59
45813;BME280;31519;45.408;10.962;2023-04-10T07:12:45;101556.22;;;16.43;45.07
45813;BME280;31519;45.408;10.962;2023-04-10T07:15:13;101550.06;;;16.60;43.96
45813;BME280;31519;45.408;10.962;2023-04-10T07:17:41;101550.38;;;16.32;43.69
45813;BME280;31519;45.408;10.962;2023-04-10T07:20:09;101540.88;;;16.09;44.07
45813;BME280;31519;45.408;10.962;2023-04-10T07:22:37;101546.28;;;16.61;43.58
45813;BME280;31519;45.408;10.962;2023-04-10T07:25:05;101545.44;;;16.77;42.92
45813;BME280;31519;45.408;10.962;2023-04-10T07:27:33;101545.16;;;16.70;43.36
45813;BME280;31519;45.408;10.962;2023-04-10T07:30:01;101544.53;;;16.65;43.15
45813;BME280;31519;45.408;10.962;2023-04-10T07:32:29;101543.56;;;16.69;43.60
45813;BME280;31519;45.408;10.962;2023-04-10T07:34:59;101555.06;;;17.04;42.60
45813;BME280;31519;45.408;10.962;2023-04-10T07:37:27;101546.31;;;17.16;41.83
45813;BME280;31519;45.408;10.962;2023-04-10T07:39:54;101552.72;;;16.94;41.91
45813;BME280;31519;45.408;10.962;2023-04-10T07:42:23;101541.81;;;16.91;42.12
45813;BME280;31519;45.408;10.962;2023-04-10T07:44:50;101542.59;;;16.82;42.13
45813;BME280;31519;45.408;10.962;2023-04-10T07:47:18;101549.78;;;17.16;42.01
45813;BME280;31519;45.408;10.962;2023-04-10T07:49:46;101548.00;;;17.29;42.12
45813;BME280;31519;45.408;10.962;2023-04-10T07:52:14;101553.94;;;17.43;41.35
45813;BME280;31519;45.408;10.962;2023-04-10T07:54:42;101551.91;;;17.40;41.40
45813;BME280;31519;45.408;10.962;2023-04-10T07:57:10;101550.41;;;17.60;41.01
45813;BME280;31519;45.408;10.962;2023-04-10T07:59:38;101555.34;;;17.87;40.45
45813;BME280;31519;45.408;10.962;2023-04-10T08:02:06;101552.50;;;17.54;41.52
45813;BME280;31519;45.408;10.962;2023-04-10T08:04:33;101549.66;;;17.80;40.54
45813;BME280;31519;45.408;10.962;2023-04-10T08:07:02;101546.38;;;17.75;40.52
45813;BME280;31519;45.408;10.962;2023-04-10T08:09:30;101554.38;;;17.92;40.10
45813;BME280;31519;45.408;10.962;2023-04-10T08:11:57;101557.19;;;18.16;39.90
45813;BME280;31519;45.408;10.962;2023-04-10T08:14:25;101551.78;;;18.16;40.00
45813;BME280;31519;45.408;10.962;2023-04-10T08:16:53;101553.38;;;18.17;39.57
45813;BME280;31519;45.408;10.962;2023-04-10T08:19:21;101559.41;;;17.73;40.38
45813;BME280;31519;45.408;10.962;2023-04-10T08:21:48;101555.09;;;18.01;39.64
45813;BME280;31519;45.408;10.962;2023-04-10T08:24:16;101540.63;;;18.05;39.46
45813;BME280;31519;45.408;10.962;2023-04-10T08:26:46;101554.25;;;17.59;39.41
45813;BME280;31519;45.408;10.962;2023-04-10T08:29:14;101560.75;;;17.49;39.38
45813;BME280;31519;45.408;10.962;2023-04-10T08:31:42;101560.06;;;17.90;39.46
45813;BME280;31519;45.408;10.962;2023-04-10T08:34:10;101557.13;;;18.25;38.58
45813;BME280;31519;45.408;10.962;2023-04-10T08:36:38;101555.84;;;18.43;38.59
45813;BME280;31519;45.408;10.962;2023-04-10T08:39:05;101553.56;;;18.86;37.70
45813;BME280;31519;45.408;10.962;2023-04-10T08:41:33;101556.56;;;19.30;37.16
45813;BME280;31519;45.408;10.962;2023-04-10T08:44:01;101550.44;;;18.96;36.74
45813;BME280;31519;45.408;10.962;2023-04-10T08:46:29;101549.78;;;19.12;37.41
45813;BME280;31519;45.408;10.962;2023-04-10T08:49:03;101554.31;;;18.00;38.15
45813;BME280;31519;45.408;10.962;2023-04-10T08:51:33;101552.03;;;17.82;38.28
45813;BME280;31519;45.408;10.962;2023-04-10T08:54:07;101554.56;;;17.87;38.98
45813;BME280;31519;45.408;10.962;2023-04-10T08:56:37;101547.38;;;18.11;37.84
45813;BME280;31519;45.408;10.962;2023-04-10T08:59:08;101544.03;;;18.35;37.62
45813;BME280;31519;45.408;10.962;2023-04-10T09:01:36;101543.72;;;18.37;37.61
45813;BME280;31519;45.408;10.962;2023-04-10T09:04:04;101545.06;;;18.43;37.36
45813;BME280;31519;45.408;10.962;2023-04-10T09:06:32;101545.84;;;19.21;36.64
45813;BME280;31519;45.408;10.962;2023-04-10T09:08:59;101547.53;;;18.36;36.64
45813;BME280;31519;45.408;10.962;2023-04-10T09:14:21;101552.88;;;17.73;37.83
45813;BME280;31519;45.408;10.962;2023-04-10T09:16:50;101543.06;;;18.61;36.93
45813;BME280;31519;45.408;10.962;2023-04-10T09:19:40;101545.00;;;18.51;37.23
45813;BME280;31519;45.408;10.962;2023-04-10T09:22:07;101536.31;;;19.48;35.77
45813;BME280;31519;45.408;10.962;2023-04-10T09:24:35;101548.38;;;19.63;35.50
45813;BME280;31519;45.408;10.962;2023-04-10T09:27:06;101546.31;;;18.66;36.73
45813;BME280;31519;45.408;10.962;2023-04-10T09:29:41;101541.84;;;18.49;37.24
45813;BME280;31519;45.408;10.962;2023-04-10T09:32:10;101549.13;;;18.49;36.79
45813;BME280;31519;45.408;10.962;2023-04-10T09:34:54;101542.63;;;19.28;35.99
45813;BME280;31519;45.408;10.962;2023-04-10T09:37:29;101545.84;;;18.43;37.49
45813;BME280;31519;45.408;10.962;2023-04-10T09:39:57;101543.22;;;18.88;36.89
45813;BME280;31519;45.408;10.962;2023-04-10T09:42:29;101549.56;;;18.59;36.73
45813;BME280;31519;45.408;10.962;2023-04-10T09:44:57;101552.19;;;17.47;38.56
45813;BME280;31519;45.408;10.962;2023-04-10T09:47:26;101546.28;;;18.12;37.41
45813;BME280;31519;45.408;10.962;2023-04-10T09:49:55;101545.09;;;19.33;36.26
45813;BME280;31519;45.408;10.962;2023-04-10T09:52:24;101538.59;;;19.70;35.51
45813;BME280;31519;45.408;10.962;2023-04-10T09:54:53;101535.88;;;18.65;36.80
45813;BME280;31519;45.408;10.962;2023-04-10T09:57:21;101540.31;;;20.03;35.45
45813;BME280;31519;45.408;10.962;2023-04-10T09:59:53;101536.22;;;19.44;35.22
45813;BME280;31519;45.408;10.962;2023-04-10T10:02:22;101527.22;;;18.71;36.82
45813;BME280;31519;45.408;10.962;2023-04-10T10:04:51;101520.44;;;19.10;36.41
45813;BME280;31519;45.408;10.962;2023-04-10T10:07:20;101519.75;;;19.13;36.03
45813;BME280;31519;45.408;10.962;2023-04-10T10:09:49;101524.91;;;20.31;34.59
45813;BME280;31519;45.408;10.962;2023-04-10T10:12:21;101517.31;;;20.64;33.46
45813;BME280;31519;45.408;10.962;2023-04-10T10:17:23;101518.63;;;19.63;34.81
45813;BME280;31519;45.408;10.962;2023-04-10T10:20:04;101509.53;;;19.19;35.44
45813;BME280;31519;45.408;10.962;2023-04-10T10:22:34;101499.00;;;20.73;33.58
45813;BME280;31519;45.408;10.962;2023-04-10T10:25:03;101508.94;;;20.69;33.15
45813;BME280;31519;45.408;10.962;2023-04-10T10:27:31;101500.19;;;19.53;34.58
45813;BME280;31519;45.408;10.962;2023-04-10T10:30:01;101504.78;;;19.64;34.63
45813;BME280;31519;45.408;10.962;2023-04-10T10:32:47;101496.94;;;19.47;34.43
45813;BME280;31519;45.408;10.962;2023-04-10T10:35:15;101503.66;;;19.77;35.00
45813;BME280;31519;45.408;10.962;2023-04-10T10:37:43;101494.28;;;20.15;33.76
45813;BME280;31519;45.408;10.962;2023-04-10T10:40:14;101494.91;;;20.79;32.61
45813;BME280;31519;45.408;10.962;2023-04-10T10:45:25;101486.66;;;19.04;35.92
45813;BME280;31519;45.408;10.962;2023-04-10T10:47:58;101489.94;;;19.22;35.99
45813;BME280;31519;45.408;10.962;2023-04-10T10:50:43;101495.09;;;18.90;36.49
45813;BME280;31519;45.408;10.962;2023-04-10T10:53:29;101485.31;;;19.99;34.44
45813;BME280;31519;45.408;10.962;2023-04-10T10:55:57;101487.94;;;19.95;34.29
45813;BME280;31519;45.408;10.962;2023-04-10T11:01:29;101474.03;;;21.62;32.04
45813;BME280;31519;45.408;10.962;2023-04-10T11:03:57;101469.03;;;21.13;32.77
45813;BME280;31519;45.408;10.962;2023-04-10T11:06:47;101473.75;;;21.01;32.84
45813;BME280;31519;45.408;10.962;2023-04-10T11:12:01;101467.47;;;20.97;32.58
45813;BME280;31519;45.408;10.962;2023-04-10T11:14:30;101463.28;;;21.15;31.80
45813;BME280;31519;45.408;10.962;2023-04-10T11:16:57;101456.31;;;22.45;31.02
45813;BME280;31519;45.408;10.962;2023-04-10T11:19:25;101456.94;;;21.42;31.16
45813;BME280;31519;45.408;10.962;2023-04-10T11:22:03;101463.63;;;21.13;31.45
45813;BME280;31519;45.408;10.962;2023-04-10T11:27:52;101449.56;;;21.58;31.50
45813;BME280;31519;45.408;10.962;2023-04-10T11:33:16;101441.97;;;22.02;30.47
45813;BME280;31519;45.408;10.962;2023-04-10T11:35:44;101432.75;;;22.07;30.63
45813;BME280;31519;45.408;10.962;2023-04-10T11:38:14;101441.50;;;20.64;31.99
45813;BME280;31519;45.408;10.962;2023-04-10T11:40:52;101429.28;;;21.52;31.31
45813;BME280;31519;45.408;10.962;2023-04-10T11:43:20;101436.94;;;21.31;31.75
45813;BME280;31519;45.408;10.962;2023-04-10T11:45:48;101423.78;;;20.98;31.71
45813;BME280;31519;45.408;10.962;2023-04-10T11:48:16;101427.00;;;21.04;31.16
45813;BME280;31519;45.408;10.962;2023-04-10T11:50:44;101413.44;;;21.04;31.28
45813;BME280;31519;45.408;10.962;2023-04-10T11:53:18;101415.25;;;21.85;30.47
45813;BME280;31519;45.408;10.962;2023-04-10T11:55:46;101409.78;;;22.69;29.11
45813;BME280;31519;45.408;10.962;2023-04-10T11:58:24;101419.31;;;22.60;29.42
45813;BME280;31519;45.408;10.962;2023-04-10T12:00:56;101407.00;;;23.15;29.55
45813;BME280;31519;45.408;10.962;2023-04-10T12:03:37;101411.38;;;24.53;26.65
45813;BME280;31519;45.408;10.962;2023-04-10T12:06:10;101407.28;;;22.80;28.01
45813;BME280;31519;45.408;10.962;2023-04-10T12:08:39;101410.44;;;22.17;29.14
45813;BME280;31519;45.408;10.962;2023-04-10T12:11:08;101399.78;;;22.50;28.81
45813;BME280;31519;45.408;10.962;2023-04-10T12:13:36;101397.09;;;23.56;27.30
45813;BME280;31519;45.408;10.962;2023-04-10T12:16:08;101403.19;;;24.12;27.02
45813;BME280;31519;45.408;10.962;2023-04-10T12:18:36;101401.22;;;24.46;26.68
45813;BME280;31519;45.408;10.962;2023-04-10T12:21:04;101401.91;;;23.10;28.00
45813;BME280;31519;45.408;10.962;2023-04-10T12:23:35;101392.69;;;23.18;28.14
45813;BME280;31519;45.408;10.962;2023-04-10T12:26:05;101392.03;;;24.24;26.88
45813;BME280;31519;45.408;10.962;2023-04-10T12:28:34;101392.84;;;24.25;26.38
45813;BME280;31519;45.408;10.962;2023-04-10T12:31:02;101392.84;;;22.53;28.95
45813;BME280;31519;45.408;10.962;2023-04-10T12:33:30;101382.69;;;21.66;30.51
45813;BME280;31519;45.408;10.962;2023-04-10T12:35:59;101400.38;;;21.41;30.81
45813;BME280;31519;45.408;10.962;2023-04-10T12:41:26;101384.25;;;21.29;31.62
45813;BME280;31519;45.408;10.962;2023-04-10T12:44:10;101386.91;;;21.44;31.02
45813;BME280;31519;45.408;10.962;2023-04-10T12:46:38;101390.59;;;21.55;30.80
45813;BME280;31519;45.408;10.962;2023-04-10T12:49:11;101372.34;;;21.52;30.88
45813;BME280;31519;45.408;10.962;2023-04-10T12:51:46;101368.34;;;21.46;30.80
45813;BME280;31519;45.408;10.962;2023-04-10T12:54:30;101370.72;;;23.00;29.28
45813;BME280;31519;45.408;10.962;2023-04-10T12:56:59;101367.63;;;22.75;29.08
45813;BME280;31519;45.408;10.962;2023-04-10T12:59:28;101365.63;;;23.55;27.92
45813;BME280;31519;45.408;10.962;2023-04-10T13:01:55;101360.91;;;24.22;27.74
45813;BME280;31519;45.408;10.962;2023-04-10T13:04:23;101359.88;;;23.33;28.26
45813;BME280;31519;45.408;10.962;2023-04-10T13:06:52;101367.56;;;22.26;29.21
45813;BME280;31519;45.408;10.962;2023-04-10T13:09:19;101357.84;;;22.71;29.23
45813;BME280;31519;45.408;10.962;2023-04-10T13:11:48;101358.44;;;22.61;29.20
45813;BME280;31519;45.408;10.962;2023-04-10T13:14:18;101367.97;;;22.51;29.59
45813;BME280;31519;45.408;10.962;2023-04-10T13:16:46;101365.63;;;21.65;29.51
45813;BME280;31519;45.408;10.962;2023-04-10T13:19:14;101365.56;;;21.43;30.03
45813;BME280;31519;45.408;10.962;2023-04-10T13:21:42;101359.97;;;23.37;27.39
45813;BME280;31519;45.408;10.962;2023-04-10T13:24:10;101352.03;;;24.28;26.19
45813;BME280;31519;45.408;10.962;2023-04-10T13:26:38;101346.69;;;23.32;27.40
45813;BME280;31519;45.408;10.962;2023-04-10T13:29:06;101349.16;;;23.74;27.02
45813;BME280;31519;45.408;10.962;2023-04-10T13:31:34;101353.00;;;25.08;25.86